Time;durP1;ratioP1;P1;durP2;ratioP2;P2;SDS_P1;SDS_P2;PMS_P1;PMS_P2;Temp;Humidity;BMP_temperature;BMP_pressure;BME280_temperature;BME280_humidity;BME280_pressure;Samples;Min_cycle;Max_cycle;Signal;HPM_P1;HPM_P2
2022/06/28 00:02:24;;;;;;;41.72;21.30;;;12.40;99.90;;;;;;6220829;23;20016;-83
2022/06/28 00:04:50;;;;;;;33.13;20.67;;;12.30;99.90;;;;;;6247553;23;20012;-82
2022/06/28 00:07:16;;;;;;;40.97;23.65;;;12.30;99.90;;;;;;6247565;23;20379;-82
2022/06/28 00:09:41;;;;;;;49.22;25.27;;;12.40;99.90;;;;;;6220899;23;20414;-82
2022/06/28 00:12:07;;;;;;;35.05;22.20;;;12.40;99.90;;;;;;6220665;23;20017;-83
2022/06/28 00:17:17;;;;;;;60.05;26.75;;;12.40;99.90;;;;;;6220541;23;20444;-83
2022/06/28 00:19:43;;;;;;;39.80;22.83;;;12.40;99.90;;;;;;6247628;23;20027;-82
2022/06/28 00:22:08;;;;;;;50.10;23.60;;;12.40;99.90;;;;;;6247482;23;20459;-83
2022/06/28 00:24:34;;;;;;;34.30;21.42;;;12.40;99.90;;;;;;6247610;23;20404;-82
2022/06/28 00:27:00;;;;;;;44.92;24.58;;;12.30;99.90;;;;;;6247305;23;20063;-82
2022/06/28 00:29:26;;;;;;;38.05;23.95;;;12.30;99.90;;;;;;6247438;23;20402;-82
2022/06/28 00:31:51;;;;;;;40.08;24.55;;;12.30;99.90;;;;;;6195523;23;20363;-82
2022/06/28 00:34:17;;;;;;;50.97;26.08;;;12.30;99.90;;;;;;6220638;23;20016;-82
2022/06/28 00:36:43;;;;;;;66.60;27.80;;;12.30;99.90;;;;;;6247285;23;20091;-82
2022/06/28 00:39:09;;;;;;;27.95;18.58;;;12.30;99.90;;;;;;6220178;23;20432;-82
2022/06/28 00:41:35;;;;;;;33.75;21.75;;;12.40;99.90;;;;;;6220143;23;20016;-82
2022/06/28 00:44:01;;;;;;;47.83;24.63;;;12.20;99.90;;;;;;6247273;23;20039;-82
2022/06/28 00:46:29;;;;;;;49.28;24.55;;;12.20;99.90;;;;;;6247215;23;20027;-82
2022/06/28 00:48:55;;;;;;;45.25;25.38;;;12.10;99.90;;;;;;6247275;23;20016;-84
2022/06/28 00:51:21;;;;;;;41.85;25.02;;;12.10;99.90;;;;;;6247220;23;20462;-82
2022/06/28 00:53:47;;;;;;;36.35;21.90;;;12.10;99.90;;;;;;6247172;23;20095;-82
2022/06/28 00:56:12;;;;;;;41.08;24.17;;;12.20;99.90;;;;;;6247012;23;20058;-82
2022/06/28 00:58:38;;;;;;;38.33;20.75;;;12.10;99.90;;;;;;6246604;23;20016;-83
2022/06/28 01:01:04;;;;;;;37.58;22.50;;;12.10;99.90;;;;;;6220310;23;20336;-82
2022/06/28 01:03:29;;;;;;;41.25;24.05;;;11.90;99.90;;;;;;6220351;23;20016;-83
2022/06/28 01:05:55;;;;;;;27.42;20.45;;;12.00;99.90;;;;;;6247369;23;20514;-82
2022/06/28 01:08:21;;;;;;;67.57;26.55;;;12.00;99.90;;;;;;6219836;23;20020;-83
2022/06/28 01:10:47;;;;;;;29.05;18.35;;;12.00;99.90;;;;;;6247018;23;20105;-83
2022/06/28 01:13:13;;;;;;;36.90;20.15;;;12.00;99.90;;;;;;6220116;23;20016;-83
2022/06/28 01:15:41;;;;;;;37.88;22.25;;;11.90;99.90;;;;;;6247107;23;20332;-83
2022/06/28 01:18:09;;;;;;;52.05;25.05;;;11.80;99.90;;;;;;6246815;23;20058;-82
2022/06/28 01:20:35;;;;;;;44.53;22.98;;;11.80;99.90;;;;;;6246869;23;20057;-83
2022/06/28 01:23:01;;;;;;;55.17;24.42;;;11.80;99.90;;;;;;6246886;23;20020;-83
2022/06/28 01:25:27;;;;;;;29.92;18.58;;;11.80;99.90;;;;;;6246873;23;20023;-83
2022/06/28 01:27:54;;;;;;;46.90;23.83;;;11.70;99.90;;;;;;6219733;23;20054;-82
2022/06/28 01:30:20;;;;;;;39.08;22.27;;;11.70;99.90;;;;;;6246834;23;20012;-82
2022/06/28 01:32:46;;;;;;;27.83;18.75;;;11.70;99.90;;;;;;6246773;23;20111;-82
2022/06/28 01:35:12;;;;;;;90.47;29.42;;;11.80;99.90;;;;;;6246813;23;20432;-83
2022/06/28 01:37:38;;;;;;;43.13;22.73;;;11.80;99.90;;;;;;6246755;23;20058;-83
2022/06/28 01:40:05;;;;;;;56.90;25.55;;;11.70;99.90;;;;;;6246820;23;20016;-83
2022/06/28 01:42:31;;;;;;;50.83;24.08;;;11.70;99.90;;;;;;6219741;23;20024;-83
2022/06/28 01:44:58;;;;;;;35.03;19.70;;;11.70;99.90;;;;;;6194319;23;20024;-83
2022/06/28 01:47:26;;;;;;;36.65;21.58;;;11.60;99.90;;;;;;6246634;23;20020;-83
2022/06/28 01:49:53;;;;;;;59.33;24.92;;;11.60;99.90;;;;;;6246610;23;20031;-83
2022/06/28 01:52:19;;;;;;;44.80;22.35;;;11.60;99.90;;;;;;6246128;23;20065;-83
2022/06/28 01:54:45;;;;;;;24.75;18.02;;;11.50;99.90;;;;;;6219834;23;20077;-83
2022/06/28 01:57:12;;;;;;;51.65;23.38;;;11.50;99.90;;;;;;6218931;23;20055;-82
2022/06/28 01:59:39;;;;;;;58.10;25.58;;;11.50;99.90;;;;;;6246588;23;20052;-84
2022/06/28 02:02:05;;;;;;;52.63;22.02;;;11.50;99.90;;;;;;6246604;23;20016;-83
2022/06/28 02:04:31;;;;;;;39.05;22.67;;;11.40;99.90;;;;;;6194512;23;20047;-83
2022/06/28 02:06:57;;;;;;;38.03;21.52;;;11.40;99.90;;;;;;6219607;23;20016;-84
2022/06/28 02:09:23;;;;;;;50.95;24.05;;;11.30;99.90;;;;;;6219640;23;20024;-83
2022/06/28 02:11:50;;;;;;;75.25;27.58;;;11.30;99.90;;;;;;6219531;23;20019;-83
2022/06/28 02:14:16;;;;;;;34.15;20.30;;;11.30;99.90;;;;;;6246730;23;20051;-83
2022/06/28 02:16:41;;;;;;;34.55;19.08;;;11.20;99.90;;;;;;6219647;23;20027;-83
2022/06/28 02:19:07;;;;;;;65.07;25.83;;;11.20;99.90;;;;;;6219502;23;20016;-82
2022/06/28 02:21:38;;;;;;;27.13;16.35;;;11.40;99.90;;;;;;6246372;23;20016;-83
2022/06/28 02:24:05;;;;;;;43.65;22.50;;;11.20;99.90;;;;;;6219573;23;20364;-82
2022/06/28 02:26:33;;;;;;;45.10;21.98;;;11.20;99.90;;;;;;6246058;23;20043;-83
2022/06/28 02:29:00;;;;;;;25.15;17.40;;;11.20;99.90;;;;;;6246339;23;20383;-82
2022/06/28 02:31:27;;;;;;;42.97;22.88;;;11.20;99.90;;;;;;6219670;23;20012;-83
2022/06/28 02:33:53;;;;;;;55.40;25.73;;;11.20;99.90;;;;;;6219362;23;20016;-83
2022/06/28 02:41:47;;;;;;;51.67;22.60;;;11.20;99.90;;;;;;6220083;23;20344;-83
2022/06/28 02:44:15;;;;;;;34.28;20.63;;;11.20;99.90;;;;;;6219427;23;20016;-83
2022/06/28 02:46:41;;;;;;;58.08;23.38;;;11.20;99.90;;;;;;6246490;23;20387;-83
2022/06/28 02:49:08;;;;;;;48.53;22.92;;;11.20;99.90;;;;;;6246058;23;20008;-83
2022/06/28 02:51:33;;;;;;;67.13;26.55;;;11.10;99.90;;;;;;6194022;23;20016;-83
2022/06/28 02:54:00;;;;;;;44.20;23.75;;;11.10;99.90;;;;;;6219238;23;20016;-83
2022/06/28 02:56:25;;;;;;;38.20;20.83;;;11.10;99.90;;;;;;6245433;23;20475;-83
2022/06/28 02:58:51;;;;;;;39.92;21.42;;;11.10;99.90;;;;;;6245961;23;20012;-83
2022/06/28 03:01:17;;;;;;;39.13;21.70;;;11.00;99.90;;;;;;6246087;23;20023;-83
2022/06/28 03:03:43;;;;;;;41.75;22.00;;;11.00;99.90;;;;;;6247727;23;20046;-83
2022/06/28 03:06:08;;;;;;;38.50;21.20;;;10.90;99.90;;;;;;6249264;23;20027;-83
2022/06/28 03:08:34;;;;;;;39.72;20.17;;;10.90;99.90;;;;;;6248741;23;20016;-84
2022/06/28 03:11:00;;;;;;;49.88;23.58;;;10.90;99.90;;;;;;6249095;23;20109;-83
2022/06/28 03:13:25;;;;;;;49.90;23.52;;;10.90;99.90;;;;;;6222729;23;20488;-82
2022/06/28 03:15:51;;;;;;;53.53;24.02;;;10.90;99.90;;;;;;6249692;23;20028;-82
2022/06/28 03:18:17;;;;;;;80.57;28.20;;;10.90;99.90;;;;;;6248860;23;20452;-83
2022/06/28 03:20:44;;;;;;;67.65;26.48;;;10.90;99.90;;;;;;6221940;23;20031;-83
2022/06/28 03:23:09;;;;;;;51.53;24.30;;;10.90;99.90;;;;;;6249307;23;20065;-83
2022/06/28 03:25:35;;;;;;;42.38;23.42;;;10.90;99.90;;;;;;6222574;23;20496;-82
2022/06/28 03:28:03;;;;;;;35.47;20.60;;;10.90;99.90;;;;;;6249506;23;20069;-82
2022/06/28 03:30:29;;;;;;;43.53;21.90;;;10.90;99.90;;;;;;6249345;23;20016;-82
2022/06/28 03:32:55;;;;;;;48.05;24.55;;;10.90;99.90;;;;;;6222417;23;20016;-83
2022/06/28 03:35:21;;;;;;;44.85;21.67;;;11.00;99.90;;;;;;6222714;23;20486;-83
2022/06/28 03:37:46;;;;;;;63.13;24.17;;;11.10;99.90;;;;;;6249681;23;20103;-83
2022/06/28 03:40:12;;;;;;;59.65;24.48;;;11.10;99.90;;;;;;6249107;23;20016;-83
2022/06/28 03:42:37;;;;;;;29.50;17.58;;;11.10;99.90;;;;;;6249373;23;20043;-83
2022/06/28 03:45:04;;;;;;;50.67;21.48;;;11.20;99.90;;;;;;6249220;23;20012;-83
2022/06/28 03:47:30;;;;;;;39.05;18.98;;;11.00;99.90;;;;;;6222330;23;20020;-83
2022/06/28 03:49:55;;;;;;;49.10;21.92;;;11.00;99.90;;;;;;6249293;23;20016;-83
2022/06/28 03:52:28;;;;;;;34.13;19.33;;;11.00;99.90;;;;;;6249379;23;20031;-82
2022/06/28 03:54:55;;;;;;;40.55;20.50;;;11.00;99.90;;;;;;6222251;23;20091;-84
2022/06/28 03:57:22;;;;;;;45.45;20.95;;;11.00;99.90;;;;;;6249163;23;20051;-82
2022/06/28 03:59:48;;;;;;;47.05;21.60;;;11.00;99.90;;;;;;6249256;23;20047;-82
2022/06/28 04:02:14;;;;;;;58.92;23.25;;;11.10;99.90;;;;;;6249219;23;20347;-82
2022/06/28 04:04:39;;;;;;;43.38;21.10;;;11.20;99.90;;;;;;6222133;23;20057;-82
2022/06/28 04:07:05;;;;;;;42.15;21.85;;;11.10;99.90;;;;;;6249249;23;20059;-82
2022/06/28 04:09:30;;;;;;;33.22;18.55;;;11.10;99.90;;;;;;6249131;23;20065;-83
2022/06/28 04:11:56;;;;;;;45.92;21.67;;;11.00;99.90;;;;;;6249317;23;20432;-82
2022/06/28 04:14:22;;;;;;;31.25;19.65;;;11.20;99.90;;;;;;6221044;23;20020;-82
2022/06/28 04:16:47;;;;;;;45.95;21.88;;;11.20;99.90;;;;;;6247554;23;20336;-82
2022/06/28 04:19:13;;;;;;;52.35;23.08;;;11.30;99.90;;;;;;6220643;23;20074;-82
2022/06/28 04:21:39;;;;;;;45.15;22.05;;;11.40;99.90;;;;;;6170947;23;20016;-82
2022/06/28 04:24:05;;;;;;;54.63;22.75;;;11.40;99.90;;;;;;6195141;23;20100;-83
2022/06/28 04:26:30;;;;;;;52.90;23.25;;;11.40;99.90;;;;;;6247230;23;20336;-82
2022/06/28 04:28:56;;;;;;;44.45;22.55;;;11.50;99.90;;;;;;6247511;23;20336;-83
2022/06/28 04:31:21;;;;;;;46.97;21.95;;;11.50;99.90;;;;;;6220699;23;20024;-82
2022/06/28 04:33:47;;;;;;;33.08;19.65;;;11.60;99.90;;;;;;6195112;23;20020;-81
2022/06/28 04:36:13;;;;;;;34.55;20.00;;;11.60;99.90;;;;;;6220502;23;20031;-82
2022/06/28 04:38:39;;;;;;;54.45;27.98;;;11.70;99.90;;;;;;6247408;23;20016;-86
2022/06/28 04:41:04;;;;;;;42.97;23.98;;;11.70;99.90;;;;;;6247281;23;20081;-83
2022/06/28 04:43:30;;;;;;;32.60;19.73;;;11.80;99.90;;;;;;6247532;23;20490;-82
2022/06/28 04:45:56;;;;;;;36.13;19.58;;;11.80;99.90;;;;;;6247506;23;20444;-82
2022/06/28 04:48:21;;;;;;;39.58;21.10;;;11.80;99.90;;;;;;6247129;23;20509;-82
2022/06/28 04:50:47;;;;;;;41.63;22.25;;;12.00;99.90;;;;;;6247474;23;20021;-81
2022/06/28 04:53:12;;;;;;;33.17;20.73;;;11.90;99.90;;;;;;6220543;23;20012;-82
2022/06/28 04:55:38;;;;;;;29.23;20.10;;;12.00;99.90;;;;;;6247115;23;20012;-83
2022/06/28 04:58:04;;;;;;;37.40;21.17;;;12.00;99.90;;;;;;6247377;23;20016;-82
2022/06/28 05:00:30;;;;;;;41.65;22.17;;;12.00;99.90;;;;;;6247174;23;20368;-81
2022/06/28 05:02:56;;;;;;;42.42;22.73;;;12.10;99.90;;;;;;6247143;23;20095;-82
2022/06/28 05:05:22;;;;;;;43.53;23.15;;;12.10;99.90;;;;;;6247081;23;20024;-82
2022/06/28 05:07:47;;;;;;;41.72;22.58;;;12.20;99.90;;;;;;6247068;23;20392;-82
2022/06/28 05:10:13;;;;;;;43.72;23.08;;;12.30;99.90;;;;;;6246952;23;20016;-82
2022/06/28 05:12:39;;;;;;;30.70;19.42;;;12.20;99.90;;;;;;6247029;23;20024;-82
2022/06/28 05:15:05;;;;;;;33.55;20.27;;;12.30;99.90;;;;;;6247096;23;20012;-82
2022/06/28 05:17:31;;;;;;;58.67;26.60;;;12.30;99.90;;;;;;6246393;23;20012;-82
2022/06/28 05:19:57;;;;;;;49.25;23.40;;;12.40;99.90;;;;;;6247090;23;20020;-82
2022/06/28 05:22:22;;;;;;;27.02;18.50;;;12.40;99.90;;;;;;6220133;23;20054;-81
2022/06/28 05:24:48;;;;;;;29.23;19.30;;;12.50;99.90;;;;;;6195161;23;20042;-82
2022/06/28 05:27:14;;;;;;;27.60;18.30;;;12.60;99.90;;;;;;6246611;23;20024;-82
2022/06/28 05:29:39;;;;;;;28.00;17.73;;;12.60;99.90;;;;;;6220216;23;20062;-82
2022/06/28 05:32:05;;;;;;;35.03;18.50;;;12.80;99.90;;;;;;6246688;23;20081;-81
2022/06/28 05:34:31;;;;;;;24.88;15.32;;;12.80;99.90;;;;;;6246893;23;20023;-82
2022/06/28 05:36:57;;;;;;;26.50;15.98;;;12.90;99.90;;;;;;6219930;23;20344;-82
2022/06/28 05:39:23;;;;;;;24.15;14.85;;;13.00;99.90;;;;;;6194400;23;20066;-81
2022/06/28 05:41:49;;;;;;;26.65;14.50;;;13.00;99.90;;;;;;6246695;23;20016;-82
2022/06/28 05:44:15;;;;;;;32.92;16.10;;;13.10;99.90;;;;;;6246679;23;20019;-82
2022/06/28 05:46:42;;;;;;;21.00;13.57;;;13.20;99.90;;;;;;6219380;23;20162;-82
2022/06/28 05:49:08;;;;;;;16.95;10.98;;;13.30;99.90;;;;;;6246547;23;20012;-82
2022/06/28 05:51:35;;;;;;;19.02;11.57;;;13.30;99.90;;;;;;6246636;23;20012;-82
2022/06/28 05:54:01;;;;;;;20.05;12.27;;;13.40;99.90;;;;;;6194936;23;20309;-82
2022/06/28 05:56:27;;;;;;;16.23;11.27;;;13.50;99.90;;;;;;6219645;23;20091;-82
2022/06/28 05:58:53;;;;;;;21.83;13.25;;;13.50;99.90;;;;;;6219562;23;20313;-83
2022/06/28 06:01:20;;;;;;;20.13;11.00;;;13.60;99.90;;;;;;6246589;23;20013;-84
2022/06/28 06:03:46;;;;;;;20.27;11.35;;;13.70;99.90;;;;;;6246443;23;20012;-83
2022/06/28 06:06:12;;;;;;;22.75;8.70;;;13.70;99.90;;;;;;6246705;23;20058;-83
2022/06/28 06:08:38;;;;;;;13.27;7.78;;;13.80;99.90;;;;;;6246489;23;20332;-83
2022/06/28 06:11:07;;;;;;;23.23;8.80;;;13.90;99.90;;;;;;6246433;23;20066;-83
2022/06/28 06:13:34;;;;;;;18.67;8.00;;;14.10;99.90;;;;;;6246341;23;20059;-83
2022/06/28 06:15:59;;;;;;;18.77;7.65;;;14.00;99.90;;;;;;6219882;23;20502;-82
2022/06/28 06:18:25;;;;;;;22.33;8.27;;;14.00;99.90;;;;;;6219807;23;20016;-82
2022/06/28 06:20:50;;;;;;;21.63;8.63;;;14.10;99.90;;;;;;6246384;23;20020;-83
2022/06/28 06:23:16;;;;;;;20.15;8.57;;;14.10;99.90;;;;;;6219740;23;20034;-83
2022/06/28 06:25:42;;;;;;;15.30;8.27;;;14.20;99.90;;;;;;6219695;23;20020;-83
2022/06/28 06:28:08;;;;;;;17.75;7.95;;;14.30;99.90;;;;;;6219259;23;20023;-82
2022/06/28 06:30:33;;;;;;;20.40;7.13;;;14.30;99.90;;;;;;6219081;23;20051;-82
2022/06/28 06:33:00;;;;;;;14.90;7.38;;;14.40;99.90;;;;;;6246156;23;20091;-83
2022/06/28 06:35:25;;;;;;;14.70;7.10;;;14.40;99.90;;;;;;6246229;23;20023;-82
2022/06/28 06:37:53;;;;;;;20.58;8.20;;;14.50;99.90;;;;;;6245884;23;20016;-83
2022/06/28 06:40:19;;;;;;;18.88;7.03;;;14.50;99.90;;;;;;6246271;23;20019;-83
2022/06/28 06:42:45;;;;;;;16.95;7.60;;;14.60;99.90;;;;;;6246070;23;20325;-83
2022/06/28 06:45:11;;;;;;;14.55;7.75;;;14.70;99.90;;;;;;6219430;23;20135;-82
2022/06/28 06:47:37;;;;;;;18.42;9.38;;;14.80;99.90;;;;;;6219367;23;20015;-83
2022/06/28 06:50:08;;;;;;;14.05;8.55;;;15.10;99.90;;;;;;6246241;23;20032;-83
2022/06/28 06:52:35;;;;;;;19.17;9.75;;;15.50;99.90;;;;;;6219739;23;20091;-84
2022/06/28 06:55:01;;;;;;;16.88;6.50;;;15.80;99.90;;;;;;6246077;23;20107;-83
2022/06/28 06:57:27;;;;;;;13.48;6.70;;;16.10;99.90;;;;;;6245926;23;20020;-83
2022/06/28 06:59:53;;;;;;;16.13;7.00;;;16.20;99.90;;;;;;6246397;23;20031;-82
2022/06/28 07:02:18;;;;;;;20.25;6.70;;;16.60;99.90;;;;;;6246006;23;20022;-83
2022/06/28 07:04:44;;;;;;;14.23;6.13;;;16.90;99.90;;;;;;6246283;23;20020;-83
2022/06/28 07:07:09;;;;;;;9.75;5.55;;;17.30;99.90;;;;;;6245973;23;20035;-82
2022/06/28 07:09:35;;;;;;;15.10;5.35;;;17.60;99.90;;;;;;6245976;23;20025;-83
2022/06/28 07:12:01;;;;;;;13.38;5.38;;;18.30;99.90;;;;;;6246128;23;20055;-84
2022/06/28 07:14:27;;;;;;;12.52;5.53;;;18.90;99.90;;;;;;6245966;23;20502;-83
2022/06/28 07:16:52;;;;;;;14.77;6.03;;;19.30;99.90;;;;;;6246102;23;20339;-85
2022/06/28 07:19:18;;;;;;;11.63;5.00;;;19.80;99.90;;;;;;6245810;23;20016;-85
2022/06/28 07:21:44;;;;;;;10.00;5.20;;;20.30;99.90;;;;;;6246099;23;20094;-84
2022/06/28 07:24:12;;;;;;;11.38;4.30;;;20.50;99.90;;;;;;6246010;23;20012;-85
2022/06/28 07:26:37;;;;;;;10.15;3.40;;;20.50;99.90;;;;;;6245863;23;20016;-85
2022/06/28 07:29:03;;;;;;;7.93;4.25;;;20.60;99.90;;;;;;6218646;23;20404;-84
2022/06/28 07:31:30;;;;;;;13.43;3.85;;;21.10;99.90;;;;;;6218669;23;20020;-84
2022/06/28 07:33:57;;;;;;;13.68;3.65;;;21.60;99.90;;;;;;6218787;23;20016;-86
2022/06/28 07:36:22;;;;;;;9.27;3.88;;;21.70;99.90;;;;;;6246109;23;20057;-85
2022/06/28 07:38:48;;;;;;;9.80;3.55;;;21.60;99.90;;;;;;6218638;23;20022;-85
2022/06/28 07:41:14;;;;;;;9.63;3.33;;;21.10;99.90;;;;;;6245890;23;20050;-86
2022/06/28 07:43:40;;;;;;;10.15;3.35;;;21.20;99.90;;;;;;6245806;23;20018;-85
2022/06/28 07:46:05;;;;;;;12.40;3.05;;;21.60;99.90;;;;;;6246233;23;20119;-85
2022/06/28 07:48:31;;;;;;;12.40;3.40;;;21.80;99.90;;;;;;6219139;23;20335;-85
2022/06/28 07:53:41;;;;;;;7.40;2.53;;;20.50;99.90;;;;;;6221023;23;20077;-84
2022/06/28 07:56:06;;;;;;;11.02;2.40;;;21.20;99.90;;;;;;6220411;23;20507;-88
2022/06/28 07:58:32;;;;;;;14.30;2.88;;;22.20;99.90;;;;;;6247854;23;20022;-86
2022/06/28 08:00:59;;;;;;;8.60;2.47;;;23.00;99.90;;;;;;6220512;23;20019;-86
2022/06/28 08:03:25;;;;;;;10.27;2.30;;;23.20;99.90;;;;;;6195984;23;20016;-86
2022/06/28 08:05:51;;;;;;;9.30;2.63;;;23.20;99.90;;;;;;6220548;23;20063;-86
2022/06/28 08:08:16;;;;;;;7.03;2.20;;;23.20;99.90;;;;;;6247631;23;20020;-85
2022/06/28 08:10:42;;;;;;;7.68;2.50;;;23.50;99.90;;;;;;6247708;23;20066;-85
2022/06/28 08:13:09;;;;;;;9.07;2.40;;;23.50;99.90;;;;;;6220677;23;20016;-86
2022/06/28 08:15:34;;;;;;;6.68;2.20;;;23.10;99.90;;;;;;6247569;23;20030;-86
2022/06/28 08:18:00;;;;;;;9.77;2.45;;;23.30;99.90;;;;;;6220667;23;20095;-86
2022/06/28 08:20:27;;;;;;;7.40;2.00;;;24.30;99.90;;;;;;6247563;23;20020;-86
2022/06/28 08:22:53;;;;;;;6.07;1.80;;;25.00;99.90;;;;;;6247499;23;20027;-86
2022/06/28 08:25:20;;;;;;;7.78;1.73;;;25.30;99.90;;;;;;6247378;23;20024;-86
2022/06/28 08:27:46;;;;;;;10.30;2.65;;;25.60;98.80;;;;;;6247406;23;20012;-87
2022/06/28 08:30:11;;;;;;;6.72;2.00;;;26.10;94.40;;;;;;6247481;23;20043;-86
2022/06/28 08:32:37;;;;;;;5.95;1.80;;;26.20;89.30;;;;;;6247326;23;20012;-87
2022/06/28 08:35:03;;;;;;;10.55;1.85;;;26.50;81.60;;;;;;6247448;23;20020;-85
2022/06/28 08:37:28;;;;;;;9.43;2.10;;;27.00;75.30;;;;;;6247374;23;20016;-87
2022/06/28 08:39:54;;;;;;;6.15;1.83;;;27.20;71.80;;;;;;6220079;23;20095;-86
2022/06/28 08:42:26;;;;;;;4.60;1.50;;;27.40;73.10;;;;;;6247435;23;20150;-87
2022/06/28 08:44:52;;;;;;;7.25;1.50;;;27.80;70.50;;;;;;6247312;23;20081;-85
2022/06/28 08:47:20;;;;;;;8.27;1.80;;;27.90;68.00;;;;;;6246816;23;20028;-85
2022/06/28 08:49:46;;;;;;;7.63;1.80;;;28.00;67.90;;;;;;6247308;23;20343;-85
2022/06/28 08:52:14;;;;;;;9.43;1.83;;;28.20;67.40;;;;;;6220653;23;20055;-85
2022/06/28 08:54:41;;;;;;;5.60;1.60;;;27.60;65.50;;;;;;6247187;23;20027;-86
2022/06/28 08:57:12;;;;;;;7.45;1.70;;;26.30;68.00;;;;;;6247061;23;20079;-86
2022/06/28 08:59:38;;;;;;;9.55;1.83;;;24.90;79.60;;;;;;6247737;23;20012;-85
2022/06/28 09:02:07;;;;;;;8.63;1.60;;;24.40;82.10;;;;;;6220159;23;20047;-86
2022/06/28 09:04:33;;;;;;;4.18;1.52;;;23.70;93.30;;;;;;6246991;23;20020;-86
2022/06/28 09:07:00;;;;;;;8.98;2.08;;;23.40;99.60;;;;;;6247141;23;20020;-86
2022/06/28 09:09:26;;;;;;;6.65;1.65;;;23.60;94.10;;;;;;6247052;23;20016;-85
2022/06/28 09:11:53;;;;;;;12.65;1.85;;;23.40;96.50;;;;;;6246939;23;20020;-84
2022/06/28 09:14:31;;;;;;;9.50;1.92;;;22.90;95.50;;;;;;6247017;23;20024;-86
2022/06/28 09:16:58;;;;;;;8.30;1.70;;;23.10;97.50;;;;;;6220368;23;20013;-86
2022/06/28 09:19:40;;;;;;;9.10;1.83;;;24.30;93.20;;;;;;6246775;23;20018;-84
2022/06/28 09:22:06;;;;;;;7.32;1.85;;;25.60;89.80;;;;;;6220170;23;20016;-84
2022/06/28 09:24:34;;;;;;;8.18;1.60;;;25.30;75.60;;;;;;6246889;23;20020;-84
2022/06/28 09:27:04;;;;;;;6.07;1.50;;;25.30;75.30;;;;;;6247064;23;20087;-85
2022/06/28 09:29:44;;;;;;;4.20;1.40;;;25.30;74.10;;;;;;6246998;23;20016;-85
2022/06/28 09:32:10;;;;;;;7.78;1.80;;;25.90;73.20;;;;;;6220217;23;20022;-84
2022/06/28 09:34:40;;;;;;;7.13;1.92;;;27.00;64.60;;;;;;6246891;23;20451;-85
2022/06/28 09:37:06;;;;;;;6.28;1.60;;;27.80;61.60;;;;;;6246685;23;20012;-86
2022/06/28 09:39:32;;;;;;;7.90;1.70;;;28.30;61.70;;;;;;6246892;23;20091;-85
2022/06/28 09:41:59;;;;;;;4.00;1.42;;;29.00;60.40;;;;;;6246851;23;20020;-85
2022/06/28 09:44:26;;;;;;;11.55;1.90;;;29.60;57.00;;;;;;6247043;23;20477;-85
2022/06/28 09:46:54;;;;;;;6.80;2.08;;;30.10;56.30;;;;;;6246283;23;20448;-85
2022/06/28 09:49:26;;;;;;;8.15;1.75;;;30.50;54.20;;;;;;6219813;23;20015;-87
2022/06/28 09:51:53;;;;;;;7.95;1.80;;;30.70;52.60;;;;;;6246510;23;20017;-86
2022/06/28 09:54:20;;;;;;;6.03;1.20;;;30.90;53.80;;;;;;6220347;23;20016;-86
2022/06/28 09:56:53;;;;;;;5.32;1.63;;;31.20;50.90;;;;;;6246651;23;20015;-85
2022/06/28 09:59:21;;;;;;;5.70;1.30;;;31.20;49.40;;;;;;6220196;23;20058;-85
2022/06/28 10:01:48;;;;;;;4.57;1.58;;;31.20;48.20;;;;;;6246656;23;20100;-86
2022/06/28 10:04:14;;;;;;;5.43;1.33;;;31.50;47.40;;;;;;6246132;23;20027;-87
2022/06/28 10:06:40;;;;;;;9.75;1.95;;;31.70;47.90;;;;;;6246404;23;20098;-87
2022/06/28 10:09:06;;;;;;;5.80;1.60;;;31.90;47.20;;;;;;6246714;23;20019;-88
2022/06/28 10:15:01;;;;;;;5.32;1.55;;;31.90;44.90;;;;;;6219549;23;20015;-85
2022/06/28 10:17:39;;;;;;;5.20;1.50;;;32.00;45.70;;;;;;6246245;23;20024;-88
2022/06/28 10:20:10;;;;;;;7.05;1.70;;;32.00;45.70;;;;;;6246581;23;20024;-86
2022/06/28 10:22:36;;;;;;;3.90;1.27;;;31.80;45.60;;;;;;6194467;23;20095;-85
2022/06/28 10:25:12;;;;;;;4.63;1.52;;;31.50;45.80;;;;;;6219666;23;20054;-85
2022/06/28 10:27:45;;;;;;;7.63;1.73;;;31.70;46.50;;;;;;6246291;23;20016;-86
2022/06/28 10:30:13;;;;;;;4.22;1.38;;;32.20;46.00;;;;;;6219601;23;20432;-85
2022/06/28 10:32:46;;;;;;;4.72;1.60;;;32.60;45.60;;;;;;6219666;23;20091;-85
2022/06/28 10:35:41;;;;;;;8.13;1.65;;;32.70;45.20;;;;;;6246304;23;20056;-84
2022/06/28 10:38:10;;;;;;;6.13;1.60;;;32.60;43.70;;;;;;6123531;23;20053;-85
2022/06/28 10:40:39;;;;;;;6.75;1.65;;;32.30;44.00;;;;;;6123826;23;20105;-85
2022/06/28 10:43:04;;;;;;;4.90;1.33;;;31.80;45.20;;;;;;6123710;23;20018;-85
2022/06/28 10:46:02;;;;;;;7.70;1.65;;;31.90;45.50;;;;;;6123775;23;20021;-85
2022/06/28 10:48:32;;;;;;;4.68;1.50;;;32.20;41.50;;;;;;6123700;23;20350;-85
2022/06/28 10:51:02;;;;;;;6.25;1.30;;;32.40;43.80;;;;;;6123876;23;20439;-86
2022/06/28 10:53:32;;;;;;;5.40;1.40;;;32.50;44.70;;;;;;6123830;23;20029;-84
2022/06/28 10:56:47;;;;;;;5.15;1.60;;;32.90;43.30;;;;;;6123978;23;20025;-85
2022/06/28 10:59:15;;;;;;;4.70;1.60;;;33.10;43.90;;;;;;6036147;23;20015;-84
2022/06/28 11:01:41;;;;;;;6.55;1.40;;;32.80;42.90;;;;;;6037037;23;20023;-84
2022/06/28 11:04:12;;;;;;;4.50;1.45;;;32.50;42.20;;;;;;6036646;23;20116;-85
2022/06/28 11:06:42;;;;;;;3.50;1.17;;;32.50;42.70;;;;;;6013319;23;20031;-84
2022/06/28 11:09:47;;;;;;;7.35;1.67;;;31.90;44.00;;;;;;5989676;23;20027;-85
2022/06/28 11:12:15;;;;;;;5.90;1.77;;;31.90;44.90;;;;;;5952712;24;20481;-85
2022/06/28 11:14:54;;;;;;;6.22;1.38;;;32.50;43.30;;;;;;6001233;23;20112;-83
2022/06/28 11:17:23;;;;;;;6.75;1.33;;;32.80;43.10;;;;;;6036959;23;20094;-84
2022/06/28 11:19:54;;;;;;;7.82;1.52;;;32.60;43.60;;;;;;6036889;23;20101;-84
2022/06/28 11:22:22;;;;;;;9.05;1.38;;;33.00;43.10;;;;;;6013097;23;20027;-85
2022/06/28 11:24:48;;;;;;;6.03;1.60;;;33.70;42.20;;;;;;6038024;23;20079;-85
2022/06/28 11:27:21;;;;;;;6.25;1.60;;;34.00;40.50;;;;;;6038636;23;20023;-85
2022/06/28 11:29:52;;;;;;;6.65;1.45;;;33.50;40.90;;;;;;6038792;23;20156;-84
2022/06/28 11:32:27;;;;;;;6.93;1.33;;;32.30;41.90;;;;;;6038785;23;20027;-84
2022/06/28 11:35:12;;;;;;;5.18;1.00;;;32.10;42.00;;;;;;6058522;23;20479;-87
2022/06/28 11:37:53;;;;;;;4.88;1.35;;;32.20;41.90;;;;;;6072141;23;20018;-84
2022/06/28 11:40:23;;;;;;;2.55;1.00;;;32.30;40.60;;;;;;6072417;23;20353;-85
2022/06/28 11:43:04;;;;;;;5.25;1.27;;;31.80;40.90;;;;;;6096320;23;20126;-85
2022/06/28 11:45:32;;;;;;;4.43;1.30;;;30.60;41.00;;;;;;6096482;23;20022;-84
2022/06/28 11:48:10;;;;;;;5.18;1.10;;;29.50;43.80;;;;;;6111800;23;20025;-84
2022/06/28 11:50:53;;;;;;;3.65;1.17;;;29.90;44.50;;;;;;6247616;23;20520;-84
2022/06/28 11:53:20;;;;;;;3.65;1.10;;;30.90;43.30;;;;;;6221038;23;20087;-84
2022/06/28 11:55:55;;;;;;;5.55;1.10;;;31.90;41.50;;;;;;6247736;23;20027;-85
2022/06/28 11:58:29;;;;;;;4.28;1.20;;;32.10;39.70;;;;;;6248001;23;20020;-84
2022/06/28 12:01:14;;;;;;;4.65;1.05;;;32.40;39.20;;;;;;6247795;23;20020;-90
2022/06/28 12:03:42;;;;;;;7.00;1.35;;;32.60;39.60;;;;;;6247821;23;20058;-84
2022/06/28 12:06:10;;;;;;;5.57;1.38;;;32.30;40.60;;;;;;6247634;23;20108;-84
2022/06/28 12:08:54;;;;;;;6.10;1.30;;;31.90;41.40;;;;;;6247776;23;20031;-84
2022/06/28 12:11:34;;;;;;;5.80;1.08;;;32.00;42.70;;;;;;6248046;23;20074;-85
2022/06/28 12:14:21;;;;;;;4.10;0.98;;;32.70;40.60;;;;;;6247667;23;20020;-84
2022/06/28 12:16:51;;;;;;;7.72;1.27;;;33.30;38.30;;;;;;6220658;23;20024;-83
2022/06/28 12:19:19;;;;;;;5.50;1.20;;;33.50;39.40;;;;;;6247372;23;20083;-84
2022/06/28 12:22:07;;;;;;;4.80;1.17;;;33.70;39.10;;;;;;6247545;23;20016;-85
2022/06/28 12:24:50;;;;;;;3.70;1.20;;;34.10;38.10;;;;;;6220228;23;20070;-84
2022/06/28 12:27:24;;;;;;;6.80;1.40;;;33.50;37.60;;;;;;6247373;23;20023;-85
2022/06/28 12:29:51;;;;;;;3.65;1.20;;;32.60;38.70;;;;;;6220732;23;20452;-84
2022/06/28 12:32:18;;;;;;;6.40;1.75;;;32.30;40.50;;;;;;6247459;23;20020;-84
2022/06/28 12:34:44;;;;;;;4.35;1.10;;;32.30;39.70;;;;;;6247416;23;20062;-84
2022/06/28 12:37:10;;;;;;;4.07;1.10;;;32.50;40.40;;;;;;6246938;23;20043;-84
2022/06/28 12:39:36;;;;;;;5.63;1.60;;;32.60;39.20;;;;;;6247409;23;20331;-84
2022/06/28 12:42:02;;;;;;;6.20;1.50;;;32.70;38.60;;;;;;6247618;23;20031;-84
2022/06/28 12:44:28;;;;;;;4.22;1.30;;;33.10;38.70;;;;;;6194971;23;20016;-84
2022/06/28 12:46:54;;;;;;;4.53;1.10;;;33.20;40.30;;;;;;6247388;23;20332;-84
2022/06/28 12:49:21;;;;;;;4.20;1.25;;;33.20;39.30;;;;;;6246989;23;20397;-84
2022/06/28 12:51:48;;;;;;;4.18;1.15;;;33.00;39.00;;;;;;6247569;23;20081;-83
2022/06/28 12:54:14;;;;;;;5.00;1.20;;;32.60;39.50;;;;;;6247305;23;20333;-84